createdAt,value
2023-03-04T00:00:44.424Z,100188.34
2023-03-04T00:03:22.621Z,100184.76
2023-03-04T00:05:51.768Z,100183.03
2023-03-04T00:08:21.050Z,100177.38
2023-03-04T00:10:49.690Z,100177.02
2023-03-04T00:13:20.824Z,100173.59
2023-03-04T00:15:49.385Z,100177.84
2023-03-04T00:18:18.001Z,100172.89
2023-03-04T00:20:46.611Z,100178.02
2023-03-04T00:23:15.507Z,100180.73
2023-03-04T00:25:44.285Z,100177.46
2023-03-04T00:28:12.848Z,100171.64
2023-03-04T00:30:42.133Z,100170.61
2023-03-04T00:33:10.726Z,100167.68
2023-03-04T00:35:40.019Z,100162.20
2023-03-04T00:38:10.265Z,100161.88
2023-03-04T00:40:39.033Z,100159.11
2023-03-04T00:43:08.048Z,100154.99
2023-03-04T00:45:36.697Z,100143.86
2023-03-04T00:48:05.766Z,100144.88
2023-03-04T00:50:34.454Z,100143.34
2023-03-04T00:53:03.998Z,100138.04
2023-03-04T00:55:32.703Z,100134.25
2023-03-04T00:58:01.959Z,100131.49
2023-03-04T01:00:30.534Z,100131.84
2023-03-04T01:02:59.122Z,100130.27
2023-03-04T01:05:27.926Z,100127.71
2023-03-04T01:07:56.525Z,100121.71
2023-03-04T01:10:25.493Z,100114.16
2023-03-04T01:12:54.520Z,100107.30
2023-03-04T01:15:24.306Z,100099.61
2023-03-04T01:17:52.956Z,100088.31
2023-03-04T01:20:22.631Z,100084.19
2023-03-04T01:22:51.328Z,100074.27
2023-03-04T01:25:20.127Z,100069.13
2023-03-04T01:27:49.239Z,100064.00
2023-03-04T01:30:18.281Z,100056.13
2023-03-04T01:32:47.110Z,100049.63
2023-03-04T01:35:15.801Z,100040.06
2023-03-04T01:37:45.313Z,100034.77
2023-03-04T01:40:14.630Z,100028.91
2023-03-04T01:42:44.702Z,100020.37
2023-03-04T01:45:19.356Z,100014.55
2023-03-04T01:47:50.725Z,100008.76
2023-03-04T01:50:33.153Z,99999.16
2023-03-04T01:53:04.555Z,99995.56
2023-03-04T01:55:33.393Z,99987.52
2023-03-04T01:58:02.519Z,99980.52
2023-03-04T02:00:35.575Z,99976.27
2023-03-04T02:03:15.694Z,99972.66
2023-03-04T02:05:48.763Z,99967.52
2023-03-04T02:08:21.238Z,99966.00
2023-03-04T02:10:51.664Z,99964.46
2023-03-04T02:13:20.663Z,99962.23
2023-03-04T02:15:50.206Z,99957.10
2023-03-04T02:18:22.423Z,99950.60
2023-03-04T02:21:15.880Z,99947.00
2023-03-04T02:23:55.146Z,99942.23
2023-03-04T02:26:27.605Z,99947.02
2023-03-04T02:28:58.931Z,99948.02
2023-03-04T02:31:32.631Z,99947.01
2023-03-04T02:34:07.810Z,99954.89
2023-03-04T02:36:37.576Z,99952.98
2023-03-04T02:39:32.661Z,99952.15
2023-03-04T02:42:02.529Z,99953.84
2023-03-04T02:44:37.620Z,99951.77
2023-03-04T02:47:08.795Z,99944.77
2023-03-04T02:49:40.487Z,99942.34
2023-03-04T02:52:14.004Z,99948.85
2023-03-04T02:54:42.666Z,99943.88
2023-03-04T02:57:13.895Z,99944.21
2023-03-04T02:59:43.731Z,99938.23
2023-03-04T03:02:12.378Z,99937.57
2023-03-04T03:04:41.880Z,99936.19
2023-03-04T03:07:10.979Z,99936.36
2023-03-04T03:09:40.175Z,99938.06
2023-03-04T03:12:08.752Z,99947.30
2023-03-04T03:14:38.075Z,99946.44
2023-03-04T03:17:06.656Z,99947.30
2023-03-04T03:19:35.417Z,99943.70
2023-03-04T03:22:04.172Z,99946.95
2023-03-04T03:24:33.277Z,99944.89
2023-03-04T03:27:02.509Z,99946.23
2023-03-04T03:29:31.144Z,99943.33
2023-03-04T03:31:59.843Z,99942.27
2023-03-04T03:34:29.276Z,99938.17
2023-03-04T03:36:58.627Z,99938.52
2023-03-04T03:39:27.239Z,99935.61
2023-03-04T03:41:55.865Z,99933.73
2023-03-04T03:44:24.426Z,99932.88
2023-03-04T03:46:53.036Z,99926.02
2023-03-04T03:49:22.021Z,99928.93
2023-03-04T03:51:51.328Z,99929.45
2023-03-04T03:54:20.860Z,99925.50
2023-03-04T03:56:50.035Z,99930.77
2023-03-04T03:59:18.655Z,99931.80
2023-03-04T04:01:47.648Z,99934.89
2023-03-04T04:04:16.455Z,99934.70
2023-03-04T04:06:45.076Z,99938.48
2023-03-04T04:09:13.718Z,99937.30
2023-03-04T04:11:42.257Z,99937.46
2023-03-04T04:14:14.932Z,99936.41
2023-03-04T04:16:43.681Z,99934.19
2023-03-04T04:19:20.470Z,99937.61
2023-03-04T04:21:49.715Z,99933.67
2023-03-04T04:24:18.408Z,99929.70
2023-03-04T04:26:47.235Z,99923.88
2023-03-04T04:29:16.958Z,99925.77
2023-03-04T04:31:46.143Z,99926.45
2023-03-04T04:34:14.720Z,99921.13
2023-03-04T04:36:43.307Z,99921.30
2023-03-04T04:39:12.012Z,99927.28
2023-03-04T04:41:42.871Z,99926.41
2023-03-04T04:44:12.757Z,99926.08
2023-03-04T04:46:43.189Z,99922.83
2023-03-04T04:49:11.771Z,99921.30
2023-03-04T04:51:40.493Z,99918.58
2023-03-04T04:54:09.355Z,99911.72
2023-03-04T04:56:38.504Z,99909.51
2023-03-04T04:59:08.936Z,99908.13
2023-03-04T05:01:37.690Z,99906.92
2023-03-04T05:04:06.502Z,99901.11
2023-03-04T05:06:35.268Z,99900.60
2023-03-04T05:09:04.856Z,99897.52
2023-03-04T05:11:33.544Z,99897.00
2023-03-04T05:14:02.172Z,99897.15
2023-03-04T05:16:31.168Z,99892.55
2023-03-04T05:19:00.345Z,99891.33
2023-03-04T05:21:29.388Z,99888.92
2023-03-04T05:23:58.012Z,99889.96
2023-03-04T05:26:26.639Z,99887.55
2023-03-04T05:28:55.386Z,99882.95
2023-03-04T05:31:24.115Z,99881.40
2023-03-04T05:33:53.416Z,99881.73
2023-03-04T05:36:22.021Z,99880.88
2023-03-04T05:38:51.258Z,99874.70
2023-03-04T05:41:23.017Z,99874.52
2023-03-04T05:43:52.340Z,99873.48
2023-03-04T05:46:25.999Z,99874.16
2023-03-04T05:48:55.124Z,99874.84
2023-03-04T05:51:24.155Z,99880.81
2023-03-04T05:53:53.289Z,99877.39
2023-03-04T05:56:22.408Z,99879.24
2023-03-04T05:58:51.090Z,99880.61
2023-03-04T06:01:19.764Z,99883.67
2023-03-04T06:03:49.666Z,99882.10
2023-03-04T06:06:18.476Z,99878.80
2023-03-04T06:08:47.118Z,99877.41
2023-03-04T06:11:15.984Z,99879.95
2023-03-04T06:13:45.554Z,99879.24
2023-03-04T06:16:14.224Z,99879.91
2023-03-04T06:18:42.982Z,99882.45
2023-03-04T06:21:11.588Z,99876.58
2023-03-04T06:23:42.423Z,99877.59
2023-03-04T06:26:15.886Z,99874.98
2023-03-04T06:28:45.638Z,99867.41
2023-03-04T06:31:14.896Z,99873.56
2023-03-04T06:33:43.661Z,99869.23
2023-03-04T06:36:12.738Z,99866.63
2023-03-04T06:38:41.925Z,99868.42
2023-03-04T06:41:12.686Z,99868.00
2023-03-04T06:43:41.330Z,99866.06
2023-03-04T06:46:10.871Z,99867.89
2023-03-04T06:48:40.206Z,99866.93
2023-03-04T06:51:11.342Z,99869.23
2023-03-04T06:53:41.400Z,99867.62
2023-03-04T06:56:12.583Z,99870.50
2023-03-04T06:58:42.317Z,99873.21
2023-03-04T07:01:20.071Z,99869.02
2023-03-04T07:03:50.398Z,99864.34
2023-03-04T07:06:22.266Z,99869.27
2023-03-04T07:08:52.059Z,99876.75
2023-03-04T07:11:22.384Z,99871.59
2023-03-04T07:13:52.131Z,99865.52
2023-03-04T07:16:22.780Z,99868.36
2023-03-04T07:18:51.903Z,99869.85
2023-03-04T07:21:21.024Z,99869.95
2023-03-04T07:23:49.660Z,99870.96
2023-03-04T07:26:18.210Z,99875.39
2023-03-04T07:28:47.599Z,99876.21
2023-03-04T07:31:24.221Z,99869.13
2023-03-04T07:33:53.188Z,99865.34
2023-03-04T07:36:22.520Z,99868.40
2023-03-04T07:38:52.296Z,99869.05
2023-03-04T07:41:23.109Z,99867.83
2023-03-04T07:43:52.760Z,99868.17
2023-03-04T07:46:21.598Z,99868.13
2023-03-04T07:48:50.918Z,99867.93
2023-03-04T07:51:22.244Z,99866.06
2023-03-04T07:53:58.629Z,99862.98
2023-03-04T07:56:33.922Z,99861.39
2023-03-04T07:59:03.246Z,99859.64
2023-03-04T08:01:37.905Z,99865.44
2023-03-04T08:04:08.020Z,99861.95
2023-03-04T08:06:37.083Z,99858.81
2023-03-04T08:09:08.997Z,99860.53
2023-03-04T08:11:38.403Z,99861.20
2023-03-04T08:14:07.567Z,99861.65
2023-03-04T08:16:36.345Z,99857.53
2023-03-04T08:19:06.358Z,99857.82
2023-03-04T08:21:35.432Z,99856.18
2023-03-04T08:24:09.065Z,99855.27
2023-03-04T08:26:44.093Z,99856.29
2023-03-04T08:29:17.014Z,99850.56
2023-03-04T08:31:48.722Z,99848.27
2023-03-04T08:34:20.111Z,99849.92
2023-03-04T08:36:48.736Z,99850.39
2023-03-04T08:39:18.746Z,99854.65
2023-03-04T08:41:49.046Z,99849.79
2023-03-04T08:44:18.024Z,99850.70
2023-03-04T08:46:47.146Z,99845.89
2023-03-04T08:49:15.775Z,99846.90
2023-03-04T08:51:45.643Z,99847.73
2023-03-04T08:54:14.599Z,99848.39
2023-03-04T08:56:43.246Z,99844.39
2023-03-04T08:59:12.285Z,99842.06
2023-03-04T09:01:42.672Z,99844.52
2023-03-04T09:04:11.432Z,99844.31
2023-03-04T09:06:40.379Z,99844.63
2023-03-04T09:09:09.239Z,99845.11
2023-03-04T09:11:38.569Z,99842.52
2023-03-04T09:14:07.527Z,99842.45
2023-03-04T09:16:36.577Z,99839.83
2023-03-04T09:19:05.729Z,99837.08
2023-03-04T09:21:34.388Z,99833.31
2023-03-04T09:24:03.827Z,99836.31
2023-03-04T09:26:32.766Z,99838.50
2023-03-04T09:29:03.268Z,99836.02
2023-03-04T09:31:31.859Z,99831.85
2023-03-04T09:34:01.117Z,99827.55
2023-03-04T09:36:29.695Z,99826.30
2023-03-04T09:39:02.301Z,99825.64
2023-03-04T09:41:50.570Z,99827.42
2023-03-04T09:44:22.914Z,99824.33
2023-03-04T09:46:53.302Z,99816.90
2023-03-04T09:49:23.649Z,99815.08
2023-03-04T09:52:10.892Z,99810.57
2023-03-04T09:54:57.667Z,99810.05
2023-03-04T09:57:51.604Z,99809.00
2023-03-04T10:00:25.500Z,99803.33
2023-03-04T10:02:54.507Z,99808.22
2023-03-04T10:05:25.936Z,99804.65
2023-03-04T10:08:21.561Z,99805.56
2023-03-04T10:10:53.381Z,99804.02
2023-03-04T10:13:46.426Z,99799.81
2023-03-04T10:16:21.979Z,99798.41
2023-03-04T10:19:03.151Z,99796.38
2023-03-04T10:21:42.893Z,99794.40
2023-03-04T10:24:18.328Z,99790.58
2023-03-04T10:26:52.934Z,99790.22
2023-03-04T10:29:24.930Z,99790.98
2023-03-04T10:31:56.452Z,99790.83
2023-03-04T10:34:25.827Z,99794.05
2023-03-04T10:36:59.951Z,99789.22
2023-03-04T10:39:37.636Z,99788.05
2023-03-04T10:42:38.073Z,99787.54
2023-03-04T10:45:22.044Z,99786.30
2023-03-04T10:47:57.400Z,99780.02
2023-03-04T10:50:28.799Z,99774.59
2023-03-04T10:52:58.200Z,99771.16
2023-03-04T10:55:42.967Z,99769.92
2023-03-04T10:58:19.218Z,99767.88
2023-03-04T11:01:15.162Z,99764.94
2023-03-04T11:03:49.909Z,99768.54
2023-03-04T11:06:23.546Z,99775.55
2023-03-04T11:09:00.327Z,99770.24
2023-03-04T11:11:43.303Z,99770.45
2023-03-04T11:14:24.427Z,99765.23
2023-03-04T11:16:58.321Z,99763.80
2023-03-04T11:19:43.262Z,99761.88
2023-03-04T11:22:17.592Z,99758.19
2023-03-04T11:24:58.064Z,99757.99
2023-03-04T11:27:40.737Z,99753.80
2023-03-04T11:30:34.985Z,99756.50
2023-03-04T11:33:33.960Z,99758.56
2023-03-04T11:36:39.168Z,99759.63
2023-03-04T11:39:22.996Z,99758.71
2023-03-04T11:42:07.735Z,99754.50
2023-03-04T11:44:37.441Z,99749.56
2023-03-04T11:47:13.808Z,99750.38
2023-03-04T11:49:56.215Z,99747.67
2023-03-04T11:52:50.905Z,99747.59
2023-03-04T11:55:38.415Z,99750.02
2023-03-04T11:58:22.546Z,99747.22
2023-03-04T12:01:21.400Z,99745.66
2023-03-04T12:03:56.752Z,99747.01
2023-03-04T12:06:36.650Z,99745.34
2023-03-04T12:09:53.157Z,99747.12
2023-03-04T12:13:18.265Z,99742.94
2023-03-04T12:16:09.108Z,99745.10
2023-03-04T12:19:13.064Z,99745.64
2023-03-04T12:22:19.063Z,99736.71
2023-03-04T12:25:30.533Z,99738.78
2023-03-04T12:28:10.981Z,99736.69
2023-03-04T12:30:51.940Z,99727.32
2023-03-04T12:33:33.121Z,99731.11
2023-03-04T12:36:22.487Z,99724.55
2023-03-04T12:38:54.086Z,99732.67
2023-03-04T12:42:01.464Z,99731.94
2023-03-04T12:45:09.499Z,99732.52
2023-03-04T12:48:13.304Z,99755.15
2023-03-04T12:50:43.486Z,99771.48
2023-03-04T12:53:36.571Z,99799.03
2023-03-04T12:56:09.893Z,99814.27
2023-03-04T12:58:39.127Z,99816.41
2023-03-04T13:01:45.854Z,99810.38
2023-03-04T13:04:50.086Z,99814.02
2023-03-04T13:07:28.168Z,99813.95
2023-03-04T13:10:05.746Z,99817.87
2023-03-04T13:12:55.105Z,99811.67
2023-03-04T13:15:30.746Z,99809.49
2023-03-04T13:18:35.941Z,99810.02
2023-03-04T13:21:22.545Z,99807.85
2023-03-04T13:23:53.388Z,99810.16
2023-03-04T13:26:33.003Z,99813.44
2023-03-04T13:29:35.011Z,99811.82
2023-03-04T13:32:05.676Z,99813.69
2023-03-04T13:34:50.229Z,99819.93
2023-03-04T13:37:36.307Z,99818.38
2023-03-04T13:40:35.843Z,99819.18
2023-03-04T13:43:28.371Z,99816.11
2023-03-04T13:45:57.753Z,99814.58
2023-03-04T13:48:32.853Z,99814.89
2023-03-04T13:51:02.663Z,99817.52
2023-03-04T13:53:53.542Z,99817.06
2023-03-04T13:56:46.806Z,99817.73
2023-03-04T13:59:44.883Z,99823.35
2023-03-04T14:02:19.359Z,99824.38
2023-03-04T14:04:54.639Z,99826.27
2023-03-04T14:07:37.462Z,99822.28
2023-03-04T14:10:12.868Z,99818.27
2023-03-04T14:12:46.693Z,99817.95
2023-03-04T14:15:15.365Z,99814.92
2023-03-04T14:17:57.794Z,99808.85
2023-03-04T14:20:35.726Z,99808.52
2023-03-04T14:23:28.182Z,99814.31
2023-03-04T14:26:15.924Z,99815.28
2023-03-04T14:28:50.501Z,99811.41
2023-03-04T14:31:22.406Z,99807.48
2023-03-04T14:34:02.969Z,99804.53
2023-03-04T14:36:36.461Z,99812.60
2023-03-04T14:39:07.642Z,99817.19
2023-03-04T14:41:43.898Z,99818.52
2023-03-04T14:44:23.222Z,99818.17
2023-03-04T14:47:08.011Z,99815.64
2023-03-04T14:49:40.322Z,99814.25
2023-03-04T14:52:32.348Z,99814.98
2023-03-04T14:55:23.288Z,99817.57
2023-03-04T14:58:07.312Z,99819.79
2023-03-04T15:00:42.670Z,99821.61
2023-03-04T15:03:30.796Z,99828.84
2023-03-04T15:06:17.107Z,99826.09
2023-03-04T15:08:47.387Z,99827.06
2023-03-04T15:11:32.222Z,99827.23
2023-03-04T15:14:01.366Z,99826.13
2023-03-04T15:16:55.151Z,99824.49
2023-03-04T15:19:28.479Z,99821.12
2023-03-04T15:22:06.606Z,99822.10
2023-03-04T15:24:36.126Z,99823.30
2023-03-04T15:27:08.414Z,99825.80
2023-03-04T15:29:38.924Z,99826.27
2023-03-04T15:32:08.522Z,99827.92
2023-03-04T15:34:37.917Z,99826.30
2023-03-04T15:37:07.148Z,99832.59
2023-03-04T15:39:37.002Z,99832.90
2023-03-04T15:42:10.280Z,99839.42
2023-03-04T15:44:40.747Z,99836.16
2023-03-04T15:47:14.268Z,99838.04
2023-03-04T15:49:48.231Z,99840.77
2023-03-04T15:52:22.879Z,99842.52
2023-03-04T15:54:53.440Z,99848.12
2023-03-04T15:57:27.155Z,99843.69
2023-03-04T15:59:56.570Z,99852.64
2023-03-04T16:02:28.230Z,99850.70
2023-03-04T16:04:58.411Z,99853.02
2023-03-04T16:07:31.136Z,99853.41
2023-03-04T16:10:06.182Z,99853.55
2023-03-04T16:12:36.157Z,99860.94
2023-03-04T16:15:22.485Z,99865.19
2023-03-04T16:17:52.658Z,99864.13
2023-03-04T16:20:27.130Z,99869.87
2023-03-04T16:23:00.890Z,99870.77
2023-03-04T16:25:31.639Z,99873.48
2023-03-04T16:28:03.900Z,99876.94
2023-03-04T16:30:33.409Z,99878.96
2023-03-04T16:33:02.439Z,99886.27
2023-03-04T16:35:34.886Z,99894.35
2023-03-04T16:38:07.274Z,99901.08
2023-03-04T16:40:36.758Z,99907.61
2023-03-04T16:43:08.470Z,99905.27
2023-03-04T16:45:38.206Z,99916.27
2023-03-04T16:48:08.781Z,99919.34
2023-03-04T16:50:39.674Z,99922.29
2023-03-04T16:53:39.067Z,99926.73
2023-03-04T16:56:14.298Z,99928.46
2023-03-04T16:58:44.707Z,99932.18
2023-03-04T17:01:19.368Z,99932.98
2023-03-04T17:03:49.215Z,99938.58
2023-03-04T17:06:18.863Z,99942.23
2023-03-04T17:08:49.063Z,99944.36
2023-03-04T17:11:24.098Z,99950.27
2023-03-04T17:13:54.758Z,99952.18
2023-03-04T17:16:24.842Z,99953.98
2023-03-04T17:18:56.609Z,99957.02
2023-03-04T17:21:27.975Z,99961.35
2023-03-04T17:23:58.468Z,99968.23
2023-03-04T17:26:29.807Z,99968.27
2023-03-04T17:29:00.767Z,99973.79
2023-03-04T17:31:31.092Z,99973.31
2023-03-04T17:34:01.090Z,99971.80
2023-03-04T17:36:31.852Z,99976.46
2023-03-04T17:39:03.845Z,99975.27
2023-03-04T17:41:36.146Z,99976.68
2023-03-04T17:44:06.410Z,99983.70
2023-03-04T17:46:38.304Z,99987.15
2023-03-04T17:49:08.169Z,99993.71
2023-03-04T17:51:43.127Z,100002.50
2023-03-04T17:54:13.719Z,100006.04
2023-03-04T17:56:47.271Z,100007.84
2023-03-04T17:59:18.866Z,100005.69
2023-03-04T18:01:48.309Z,100008.64
2023-03-04T18:04:20.021Z,100011.61
2023-03-04T18:06:53.691Z,100012.52
2023-03-04T18:09:24.849Z,100017.84
2023-03-04T18:11:55.487Z,100018.04
2023-03-04T18:14:26.322Z,100021.98
2023-03-04T18:16:56.991Z,100025.45
2023-03-04T18:19:26.582Z,100023.92
2023-03-04T18:21:56.824Z,100028.05
2023-03-04T18:24:30.105Z,100032.16
2023-03-04T18:27:01.916Z,100029.44
2023-03-04T18:29:32.413Z,100032.00
2023-03-04T18:32:03.525Z,100035.60
2023-03-04T18:34:33.892Z,100034.75
2023-03-04T18:37:06.296Z,100039.02
2023-03-04T18:39:38.911Z,100041.23
2023-03-04T18:42:10.327Z,100040.53
2023-03-04T18:44:40.396Z,100040.36
2023-03-04T18:47:12.912Z,100041.54
2023-03-04T18:49:46.928Z,100043.39
2023-03-04T18:52:18.335Z,100043.58
2023-03-04T18:54:50.015Z,100040.70
2023-03-04T18:57:19.848Z,100042.23
2023-03-04T18:59:56.858Z,100046.34
2023-03-04T19:02:29.540Z,100046.34
2023-03-04T19:05:21.350Z,100044.65
2023-03-04T19:07:53.254Z,100048.23
2023-03-04T19:10:26.563Z,100046.86
2023-03-04T19:12:57.944Z,100047.23
2023-03-04T19:15:29.177Z,100051.02
2023-03-04T19:17:59.652Z,100051.38
2023-03-04T19:20:30.078Z,100054.11
2023-03-04T19:23:03.851Z,100051.21
2023-03-04T19:25:35.369Z,100053.77
2023-03-04T19:28:05.410Z,100051.04
2023-03-04T19:30:42.181Z,100053.75
2023-03-04T19:33:13.776Z,100051.52
2023-03-04T19:35:46.015Z,100052.18
2023-03-04T19:38:16.459Z,100049.95
2023-03-04T19:40:49.681Z,100050.80
2023-03-04T19:43:21.455Z,100051.96
2023-03-04T19:45:58.725Z,100053.15
2023-03-04T19:48:28.529Z,100054.99
2023-03-04T19:51:00.667Z,100058.00
2023-03-04T19:53:33.567Z,100060.52
2023-03-04T19:56:04.968Z,100059.48
2023-03-04T19:58:35.345Z,100061.01
2023-03-04T20:01:07.427Z,100063.88
2023-03-04T20:03:39.053Z,100064.85
2023-03-04T20:06:09.770Z,100065.20
2023-03-04T20:08:39.851Z,100067.23
2023-03-04T20:11:14.491Z,100063.29
2023-03-04T20:13:46.021Z,100065.13
2023-03-04T20:16:15.953Z,100061.02
2023-03-04T20:18:46.815Z,100064.55
2023-03-04T20:21:18.178Z,100060.23
2023-03-04T20:23:48.329Z,100059.31
2023-03-04T20:26:21.690Z,100059.94
2023-03-04T20:28:51.936Z,100063.13
2023-03-04T20:31:26.724Z,100066.69
2023-03-04T20:33:57.564Z,100065.45
2023-03-04T20:36:29.518Z,100066.09
2023-03-04T20:39:02.726Z,100066.58
2023-03-04T20:41:35.994Z,100062.45
2023-03-04T20:44:10.084Z,100059.36
2023-03-04T20:46:46.550Z,100056.80
2023-03-04T20:49:24.421Z,100054.39
2023-03-04T20:51:58.646Z,100059.14
2023-03-04T20:54:28.685Z,100057.77
2023-03-04T20:56:58.588Z,100057.05
2023-03-04T20:59:30.230Z,100054.48
2023-03-04T21:02:00.791Z,100050.54
2023-03-04T21:04:33.634Z,100051.55
2023-03-04T21:07:03.350Z,100053.91
2023-03-04T21:09:33.146Z,100056.13
2023-03-04T21:12:05.665Z,100056.58
2023-03-04T21:14:34.974Z,100056.55
2023-03-04T21:17:06.404Z,100054.34
2023-03-04T21:19:40.800Z,100058.09
2023-03-04T21:22:18.636Z,100058.78
2023-03-04T21:24:50.681Z,100057.07
2023-03-04T21:27:22.724Z,100056.17
2023-03-04T21:29:53.363Z,100057.30
2023-03-04T21:32:28.145Z,100051.68
2023-03-04T21:34:58.603Z,100054.89
2023-03-04T21:37:28.832Z,100049.55
2023-03-04T21:39:58.869Z,100053.19
2023-03-04T21:42:28.663Z,100056.32
2023-03-04T21:44:57.496Z,100054.23
2023-03-04T21:47:26.758Z,100049.62
2023-03-04T21:49:58.717Z,100052.94
2023-03-04T21:52:28.254Z,100051.92
2023-03-04T21:54:57.609Z,100043.76
2023-03-04T21:57:27.095Z,100040.45
2023-03-04T21:59:56.817Z,100039.89
2023-03-04T22:02:26.531Z,100038.77
2023-03-04T22:04:58.242Z,100034.64
2023-03-04T22:07:26.837Z,100034.79
2023-03-04T22:09:55.954Z,100030.83
2023-03-04T22:12:24.685Z,100031.80
2023-03-04T22:14:53.417Z,100026.00
2023-03-04T22:17:22.245Z,100030.85
2023-03-04T22:19:51.002Z,100026.37
2023-03-04T22:22:19.736Z,100025.42
2023-03-04T22:24:48.337Z,100023.88
2023-03-04T22:27:16.979Z,100023.64
2023-03-04T22:29:45.730Z,100021.00
2023-03-04T22:32:17.510Z,100019.58
2023-03-04T22:34:46.212Z,100017.48
2023-03-04T22:37:15.117Z,100016.90
2023-03-04T22:39:43.882Z,100014.16
2023-03-04T22:42:12.571Z,100011.77
2023-03-04T22:44:41.246Z,100007.38
2023-03-04T22:47:10.462Z,100008.20
2023-03-04T22:49:41.529Z,100011.19
2023-03-04T22:52:10.305Z,100010.69
2023-03-04T22:54:39.497Z,100012.17
2023-03-04T22:57:08.716Z,100008.98
2023-03-04T22:59:37.881Z,100009.70
2023-03-04T23:02:06.593Z,100009.82
2023-03-04T23:04:35.298Z,100007.42
2023-03-04T23:07:04.117Z,100007.36
2023-03-04T23:09:33.264Z,100004.09
2023-03-04T23:12:02.092Z,100001.33
2023-03-04T23:14:31.460Z,100002.97
2023-03-04T23:17:00.638Z,100002.49
2023-03-04T23:19:29.873Z,99999.46
2023-03-04T23:21:58.821Z,99998.80
2023-03-04T23:24:27.552Z,99999.58
2023-03-04T23:26:56.453Z,99994.63
2023-03-04T23:29:25.600Z,99995.73
2023-03-04T23:31:54.359Z,99994.65
2023-03-04T23:34:23.614Z,99993.16
2023-03-04T23:36:52.894Z,99988.12
2023-03-04T23:39:22.182Z,99992.35
2023-03-04T23:41:51.406Z,99990.08
2023-03-04T23:44:20.160Z,99986.64
2023-03-04T23:46:48.853Z,99985.48
2023-03-04T23:49:18.499Z,99982.44
2023-03-04T23:51:47.457Z,99980.95
2023-03-04T23:54:16.469Z,99978.85
2023-03-04T23:56:45.163Z,99977.90
2023-03-04T23:59:13.976Z,99975.97
